createdAt,value
2023-04-25T00:01:10.009Z,20.73
2023-04-25T00:03:40.073Z,10.03
2023-04-25T00:06:09.420Z,9.47
2023-04-25T00:08:38.188Z,10.63
2023-04-25T00:11:07.008Z,17.23
2023-04-25T00:13:35.530Z,7.80
2023-04-25T00:16:05.246Z,14.27
2023-04-25T00:18:34.815Z,15.53
2023-04-25T00:21:07.182Z,13.23
2023-04-25T00:23:37.245Z,17.33
2023-04-25T00:26:05.810Z,6.33
2023-04-25T00:28:34.360Z,20.07
2023-04-25T00:31:03.057Z,16.00
2023-04-25T00:33:31.695Z,17.30
2023-04-25T00:36:00.265Z,14.87
2023-04-25T00:38:30.520Z,16.90
2023-04-25T00:40:59.148Z,11.77
2023-04-25T00:43:29.105Z,12.97
2023-04-25T00:45:58.928Z,17.27
2023-04-25T00:48:27.499Z,10.70
2023-04-25T00:50:58.799Z,6.47
2023-04-25T00:53:28.981Z,9.40
2023-04-25T00:55:59.069Z,16.33
2023-04-25T00:58:28.012Z,13.27
2023-04-25T01:00:58.576Z,9.93
2023-04-25T01:03:29.784Z,12.83
2023-04-25T01:05:58.707Z,11.77
2023-04-25T01:08:27.311Z,8.33
2023-04-25T01:10:55.975Z,13.53
2023-04-25T01:13:25.938Z,7.03
2023-04-25T01:15:54.854Z,17.60
2023-04-25T01:18:23.615Z,16.40
2023-04-25T01:20:53.467Z,11.43
2023-04-25T01:23:25.358Z,12.83
2023-04-25T01:25:54.948Z,15.07
2023-04-25T01:28:24.390Z,11.43
2023-04-25T01:30:53.920Z,12.40
2023-04-25T01:33:23.885Z,6.00
2023-04-25T01:35:52.539Z,22.13
2023-04-25T01:38:23.930Z,11.60
2023-04-25T01:40:54.046Z,9.20
2023-04-25T01:43:24.215Z,15.87
2023-04-25T01:45:53.025Z,18.10
2023-04-25T01:48:21.729Z,17.53
2023-04-25T01:50:50.406Z,10.70
2023-04-25T01:53:19.972Z,14.03
2023-04-25T01:55:50.560Z,12.80
2023-04-25T01:58:22.047Z,7.83
2023-04-25T02:01:13.909Z,13.97
2023-04-25T02:03:48.758Z,16.17
2023-04-25T02:06:27.179Z,8.03
2023-04-25T02:08:58.816Z,18.53
2023-04-25T02:11:28.700Z,11.13
2023-04-25T02:14:23.132Z,19.47
2023-04-25T02:16:59.449Z,10.43
2023-04-25T02:19:28.209Z,14.90
2023-04-25T02:21:58.011Z,14.73
2023-04-25T02:24:28.987Z,14.10
2023-04-25T02:27:00.045Z,10.20
2023-04-25T02:29:28.631Z,19.97
2023-04-25T02:31:57.383Z,11.27
2023-04-25T02:34:25.997Z,13.07
2023-04-25T02:36:54.534Z,21.33
2023-04-25T02:39:23.208Z,7.87
2023-04-25T02:41:51.924Z,10.20
2023-04-25T02:44:21.842Z,14.57
2023-04-25T02:46:50.383Z,13.13
2023-04-25T02:49:19.030Z,13.57
2023-04-25T02:51:47.680Z,13.30
2023-04-25T02:54:16.344Z,14.53
2023-04-25T02:56:48.911Z,15.47
2023-04-25T02:59:24.311Z,11.97
2023-04-25T03:01:52.817Z,8.20
2023-04-25T03:04:21.873Z,19.23
2023-04-25T03:06:50.706Z,11.37
2023-04-25T03:09:19.460Z,17.17
2023-04-25T03:11:49.013Z,17.67
2023-04-25T03:14:17.562Z,7.07
2023-04-25T03:16:47.950Z,18.20
2023-04-25T03:19:17.022Z,16.53
2023-04-25T03:21:46.128Z,15.37
2023-04-25T03:24:15.170Z,17.67
2023-04-25T03:26:43.702Z,10.13
2023-04-25T03:29:12.550Z,7.33
2023-04-25T03:31:42.849Z,12.53
2023-04-25T03:34:13.084Z,12.50
2023-04-25T03:36:41.846Z,14.20
2023-04-25T03:39:11.089Z,12.53
2023-04-25T03:41:40.764Z,11.00
2023-04-25T03:44:14.856Z,20.40
2023-04-25T03:46:43.685Z,6.60
2023-04-25T03:49:13.730Z,7.40
2023-04-25T03:52:03.940Z,13.57
2023-04-25T03:54:38.249Z,15.10
2023-04-25T03:57:11.322Z,11.23
2023-04-25T03:59:41.713Z,13.50
2023-04-25T04:02:13.370Z,15.23
2023-04-25T04:04:45.355Z,8.47
2023-04-25T04:07:14.258Z,11.47
2023-04-25T04:09:44.953Z,10.17
2023-04-25T04:12:20.038Z,7.63
2023-04-25T04:14:48.519Z,8.40
2023-04-25T04:17:17.102Z,14.13
2023-04-25T04:19:47.170Z,14.57
2023-04-25T04:22:21.195Z,14.83
2023-04-25T04:24:51.643Z,10.67
2023-04-25T04:27:35.380Z,12.90
2023-04-25T04:30:22.593Z,9.50
2023-04-25T04:33:03.103Z,7.40
2023-04-25T04:35:33.347Z,15.93
2023-04-25T04:38:02.566Z,7.40
2023-04-25T04:40:35.840Z,14.50
2023-04-25T04:43:14.321Z,8.17
2023-04-25T04:46:13.693Z,8.07
2023-04-25T04:48:58.331Z,5.80
2023-04-25T04:51:50.841Z,8.20
2023-04-25T04:54:38.439Z,9.40
2023-04-25T04:57:17.478Z,6.10
2023-04-25T05:00:08.366Z,11.23
2023-04-25T05:03:08.810Z,7.70
2023-04-25T05:05:44.626Z,6.83
2023-04-25T05:08:35.209Z,11.10
2023-04-25T05:11:27.046Z,9.83
2023-04-25T05:14:24.910Z,5.00
2023-04-25T05:17:15.796Z,8.00
2023-04-25T05:20:15.076Z,7.20
2023-04-25T05:22:55.439Z,5.30
2023-04-25T05:25:39.268Z,5.37
2023-04-25T05:28:14.193Z,3.10
2023-04-25T05:31:12.284Z,11.17
2023-04-25T05:33:49.160Z,8.63
2023-04-25T05:36:18.535Z,3.47
2023-04-25T05:38:47.267Z,7.13
2023-04-25T05:41:37.207Z,9.03
2023-04-25T05:44:27.865Z,7.73
2023-04-25T05:47:20.683Z,8.83
2023-04-25T05:50:10.781Z,3.53
2023-04-25T05:52:50.023Z,9.43
2023-04-25T05:55:47.537Z,13.67
2023-04-25T05:58:25.953Z,6.70
2023-04-25T06:00:56.347Z,5.63
2023-04-25T06:03:25.637Z,4.40
2023-04-25T06:05:54.644Z,4.90
2023-04-25T06:08:23.225Z,3.50
2023-04-25T06:10:51.793Z,10.13
2023-04-25T06:13:21.075Z,7.70
2023-04-25T06:15:51.270Z,6.67
2023-04-25T06:18:20.329Z,7.50
2023-04-25T06:20:49.032Z,7.13
2023-04-25T06:23:19.706Z,7.90
2023-04-25T06:25:54.113Z,7.70
2023-04-25T06:28:24.275Z,3.57
2023-04-25T06:30:54.372Z,6.00
2023-04-25T06:33:23.269Z,6.83
2023-04-25T06:35:52.147Z,4.47
2023-04-25T06:38:25.418Z,7.07
2023-04-25T06:40:55.332Z,4.50
2023-04-25T06:43:23.977Z,5.67
2023-04-25T06:46:06.668Z,5.13
2023-04-25T06:48:42.679Z,6.77
2023-04-25T06:51:11.387Z,9.43
2023-04-25T06:53:41.612Z,6.63
2023-04-25T06:56:14.349Z,2.27
2023-04-25T06:58:57.463Z,7.93
2023-04-25T07:01:34.365Z,5.93
2023-04-25T07:04:07.222Z,2.93
2023-04-25T07:06:43.318Z,8.20
2023-04-25T07:09:12.311Z,5.73
2023-04-25T07:11:41.499Z,8.27
2023-04-25T07:14:10.114Z,8.47
2023-04-25T07:16:40.121Z,6.27
2023-04-25T07:19:08.788Z,6.23
2023-04-25T07:21:38.592Z,8.70
2023-04-25T07:24:08.855Z,3.47
2023-04-25T07:26:42.000Z,10.10
2023-04-25T07:29:21.326Z,5.43
2023-04-25T07:31:51.284Z,7.33
2023-04-25T07:34:22.359Z,3.13
2023-04-25T07:36:51.501Z,10.23
2023-04-25T07:39:20.501Z,5.10
2023-04-25T07:41:49.407Z,4.03
2023-04-25T07:44:24.394Z,5.93
2023-04-25T07:46:54.598Z,7.03
2023-04-25T07:49:23.332Z,6.30
2023-04-25T07:51:52.267Z,5.10
2023-04-25T07:54:22.434Z,4.00
2023-04-25T07:57:03.260Z,3.57
2023-04-25T07:59:33.288Z,1.90
2023-04-25T08:02:05.659Z,4.67
2023-04-25T08:04:34.374Z,7.10
2023-04-25T08:07:06.716Z,5.23
2023-04-25T08:09:43.447Z,8.73
2023-04-25T08:12:19.439Z,6.10
2023-04-25T08:14:48.975Z,2.83
2023-04-25T08:17:19.124Z,6.43
2023-04-25T08:19:47.800Z,3.27
2023-04-25T08:22:25.672Z,4.87
2023-04-25T08:25:13.526Z,6.23
2023-04-25T08:27:42.992Z,4.70
2023-04-25T08:30:12.408Z,5.93
2023-04-25T08:32:44.109Z,5.87
2023-04-25T08:35:42.413Z,7.20
2023-04-25T08:38:12.211Z,4.33
2023-04-25T08:40:41.855Z,4.83
2023-04-25T08:43:20.582Z,1.23
2023-04-25T08:45:49.805Z,1.33
2023-04-25T08:48:35.797Z,1.83
2023-04-25T08:53:43.830Z,3.93
2023-04-25T08:56:15.327Z,3.13
2023-04-25T08:58:44.104Z,1.87
2023-04-25T09:01:13.678Z,1.20
2023-04-25T09:03:51.692Z,5.03
2023-04-25T09:06:21.730Z,4.43
2023-04-25T09:08:52.717Z,8.20
2023-04-25T09:11:23.486Z,1.77
2023-04-25T09:14:12.860Z,1.43
2023-04-25T09:17:06.071Z,3.73
2023-04-25T09:19:46.602Z,3.20
2023-04-25T09:22:24.168Z,3.40
2023-04-25T09:24:52.789Z,6.90
2023-04-25T09:27:26.172Z,10.77
2023-04-25T09:30:02.840Z,2.80
2023-04-25T09:32:46.815Z,3.83
2023-04-25T09:35:26.317Z,1.57
2023-04-25T09:37:56.330Z,6.80
2023-04-25T09:40:50.672Z,3.00
2023-04-25T09:43:27.717Z,2.03
2023-04-25T09:46:00.324Z,4.07
2023-04-25T09:48:31.168Z,4.00
2023-04-25T09:51:10.391Z,2.20
2023-04-25T09:53:41.834Z,1.47
2023-04-25T09:56:37.935Z,9.07
2023-04-25T09:59:11.224Z,3.40
2023-04-25T10:01:42.823Z,1.63
2023-04-25T10:04:21.127Z,5.57
2023-04-25T10:07:29.281Z,5.07
2023-04-25T10:10:03.088Z,1.10
2023-04-25T10:12:32.061Z,4.37
2023-04-25T10:15:01.316Z,1.53
2023-04-25T10:17:30.094Z,3.57
2023-04-25T10:19:59.715Z,3.17
2023-04-25T10:22:34.798Z,6.07
2023-04-25T10:25:05.021Z,5.43
2023-04-25T10:27:34.287Z,4.43
2023-04-25T10:30:05.397Z,4.60
2023-04-25T10:32:34.664Z,5.00
2023-04-25T10:35:13.551Z,8.47
2023-04-25T10:37:59.503Z,5.40
2023-04-25T10:40:28.678Z,1.43
2023-04-25T10:42:57.986Z,6.07
2023-04-25T10:45:27.817Z,7.70
2023-04-25T10:47:57.187Z,2.03
2023-04-25T10:50:39.565Z,5.40
2023-04-25T10:53:18.028Z,2.47
2023-04-25T10:55:53.522Z,1.50
2023-04-25T10:58:24.567Z,4.57
2023-04-25T11:00:57.481Z,4.47
2023-04-25T11:03:26.899Z,4.87
2023-04-25T11:05:58.437Z,4.10
2023-04-25T11:08:43.844Z,4.80
2023-04-25T11:11:12.549Z,3.20
2023-04-25T11:13:41.192Z,4.70
2023-04-25T11:16:13.029Z,0.70
2023-04-25T11:18:43.979Z,5.00
2023-04-25T11:21:13.311Z,0.80
2023-04-25T11:23:43.361Z,2.37
2023-04-25T11:26:12.032Z,9.30
2023-04-25T11:28:40.627Z,7.33
2023-04-25T11:31:10.753Z,4.07
2023-04-25T11:33:39.309Z,2.37
2023-04-25T11:36:08.646Z,3.63
2023-04-25T11:38:37.238Z,6.97
2023-04-25T11:41:07.236Z,3.83
2023-04-25T11:43:35.876Z,5.03
2023-04-25T11:46:09.157Z,3.70
2023-04-25T11:48:41.036Z,2.87
2023-04-25T11:51:09.725Z,2.47
2023-04-25T11:53:38.320Z,6.37
2023-04-25T11:56:13.442Z,5.73
2023-04-25T11:59:02.223Z,2.13
2023-04-25T12:01:35.548Z,2.97
2023-04-25T12:04:15.084Z,4.97
2023-04-25T12:06:47.567Z,2.53
2023-04-25T12:09:18.908Z,4.93
2023-04-25T12:11:50.154Z,2.07
2023-04-25T12:14:28.086Z,1.77
2023-04-25T12:16:58.729Z,2.63
2023-04-25T12:19:28.363Z,3.87
2023-04-25T12:21:59.177Z,2.50
2023-04-25T12:24:29.272Z,0.83
2023-04-25T12:27:03.797Z,3.30
2023-04-25T12:29:48.669Z,3.77
2023-04-25T12:32:18.811Z,3.40
2023-04-25T12:34:47.640Z,2.43
2023-04-25T12:37:16.807Z,3.23
2023-04-25T12:39:45.712Z,2.73
2023-04-25T12:42:15.725Z,4.20
2023-04-25T12:44:44.230Z,0.73
2023-04-25T12:47:12.909Z,3.03
2023-04-25T12:49:41.722Z,5.80
2023-04-25T12:52:10.918Z,2.93
2023-04-25T12:54:39.766Z,14.17
2023-04-25T12:57:08.590Z,1.80
2023-04-25T12:59:38.599Z,4.20
2023-04-25T13:02:07.224Z,4.63
2023-04-25T13:04:35.987Z,2.23
2023-04-25T13:07:04.996Z,3.40
2023-04-25T13:09:33.668Z,2.20
2023-04-25T13:12:02.688Z,4.50
2023-04-25T13:14:31.574Z,3.20
2023-04-25T13:17:01.578Z,5.37
2023-04-25T13:19:30.236Z,7.77
2023-04-25T13:21:59.860Z,1.73
2023-04-25T13:24:28.849Z,3.60
2023-04-25T13:26:57.821Z,2.80
2023-04-25T13:29:26.361Z,1.97
2023-04-25T13:31:54.899Z,4.07
2023-04-25T13:34:25.030Z,4.77
2023-04-25T13:36:53.744Z,6.43
2023-04-25T13:39:22.376Z,2.43
2023-04-25T13:41:50.968Z,3.53
2023-04-25T13:44:19.501Z,1.73
2023-04-25T13:46:48.392Z,4.13
2023-04-25T13:49:17.035Z,2.47
2023-04-25T13:51:47.355Z,5.00
2023-04-25T13:54:15.950Z,5.20
2023-04-25T13:56:44.567Z,5.50
2023-04-25T13:59:13.363Z,1.47
2023-04-25T14:01:42.026Z,2.00
2023-04-25T14:04:10.903Z,4.63
2023-04-25T14:06:39.552Z,2.70
2023-04-25T14:09:11.475Z,3.63
2023-04-25T14:11:40.171Z,3.27
2023-04-25T14:14:08.742Z,2.17
2023-04-25T14:16:37.520Z,5.27
2023-04-25T14:19:06.327Z,3.77
2023-04-25T14:21:34.906Z,11.20
2023-04-25T14:24:03.546Z,3.97
2023-04-25T14:26:33.728Z,2.83
2023-04-25T14:29:02.405Z,2.83
2023-04-25T14:31:31.191Z,3.00
2023-04-25T14:34:00.119Z,2.67
2023-04-25T14:36:30.007Z,8.33
2023-04-25T14:38:58.647Z,1.80
2023-04-25T14:41:27.941Z,6.17
2023-04-25T14:43:58.692Z,3.13
2023-04-25T14:46:27.742Z,6.73
2023-04-25T14:48:57.331Z,1.33
2023-04-25T14:51:27.412Z,2.97
2023-04-25T14:53:56.094Z,5.70
2023-04-25T14:56:24.918Z,6.77
2023-04-25T14:58:53.465Z,1.50
2023-04-25T15:01:24.209Z,1.97
2023-04-25T15:03:53.589Z,3.03
2023-04-25T15:06:22.656Z,7.00
2023-04-25T15:08:51.325Z,1.23
2023-04-25T15:11:21.306Z,1.00
2023-04-25T15:13:51.170Z,3.33
2023-04-25T15:16:20.220Z,6.63
2023-04-25T15:18:50.362Z,4.53
2023-04-25T15:21:19.016Z,4.80
2023-04-25T15:23:47.674Z,2.20
2023-04-25T15:26:16.637Z,4.03
2023-04-25T15:28:45.346Z,0.67
2023-04-25T15:31:13.910Z,5.93
2023-04-25T15:33:42.494Z,3.33
2023-04-25T15:36:12.528Z,2.87
2023-04-25T15:38:41.422Z,6.57
2023-04-25T15:41:10.464Z,7.67
2023-04-25T15:43:39.026Z,2.57
2023-04-25T15:46:07.812Z,3.60
2023-04-25T15:48:36.539Z,7.27
2023-04-25T15:51:06.031Z,1.40
2023-04-25T15:53:35.975Z,2.97
2023-04-25T15:56:05.700Z,2.20
2023-04-25T15:58:34.268Z,2.80
2023-04-25T16:01:04.829Z,3.83
2023-04-25T16:03:36.381Z,4.87
2023-04-25T16:06:06.042Z,1.27
2023-04-25T16:08:36.273Z,7.87
2023-04-25T16:11:05.351Z,3.90
2023-04-25T16:13:35.400Z,3.43
2023-04-25T16:16:04.078Z,6.03
2023-04-25T16:18:32.696Z,4.60
2023-04-25T16:21:01.425Z,3.80
2023-04-25T16:23:31.337Z,4.77
2023-04-25T16:26:01.342Z,1.70
2023-04-25T16:28:29.994Z,3.93
2023-04-25T16:30:58.647Z,4.97
2023-04-25T16:33:27.512Z,7.30
2023-04-25T16:35:56.270Z,8.07
2023-04-25T16:38:26.046Z,4.00
2023-04-25T16:40:55.132Z,4.13
2023-04-25T16:43:25.301Z,2.87
2023-04-25T16:45:53.958Z,4.93
2023-04-25T16:48:24.410Z,6.03
2023-04-25T16:50:53.442Z,3.10
2023-04-25T16:53:23.276Z,3.73
2023-04-25T16:55:52.248Z,3.60
2023-04-25T16:58:21.844Z,7.33
2023-04-25T17:00:51.807Z,3.03
2023-04-25T17:03:20.533Z,5.40
2023-04-25T17:05:51.192Z,7.13
2023-04-25T17:08:19.756Z,4.77
2023-04-25T17:10:48.385Z,2.13
2023-04-25T17:13:17.122Z,1.60
2023-04-25T17:15:45.829Z,4.13
2023-04-25T17:18:15.961Z,4.67
2023-04-25T17:20:44.797Z,4.47
2023-04-25T17:23:13.819Z,2.77
2023-04-25T17:25:42.798Z,1.50
2023-04-25T17:28:11.473Z,1.70
2023-04-25T17:30:42.249Z,3.53
2023-04-25T17:33:11.044Z,0.93
2023-04-25T17:35:41.513Z,5.53
2023-04-25T17:38:10.158Z,4.33
2023-04-25T17:40:41.767Z,2.30
2023-04-25T17:43:10.436Z,2.03
2023-04-25T17:45:39.217Z,4.93
2023-04-25T17:48:08.493Z,1.77
2023-04-25T17:50:37.312Z,5.03
2023-04-25T17:53:07.336Z,2.03
2023-04-25T17:55:36.076Z,7.77
2023-04-25T17:58:05.410Z,4.43
2023-04-25T18:00:34.449Z,7.43
2023-04-25T18:03:03.565Z,5.37
2023-04-25T18:05:32.993Z,6.07
2023-04-25T18:08:01.692Z,11.53
2023-04-25T18:10:31.621Z,4.87
2023-04-25T18:13:00.218Z,5.93
2023-04-25T18:15:28.891Z,5.30
2023-04-25T18:17:58.206Z,4.20
2023-04-25T18:20:28.529Z,7.90
2023-04-25T18:22:57.423Z,8.90
2023-04-25T18:25:25.933Z,10.63
2023-04-25T18:27:55.799Z,3.33
2023-04-25T18:30:24.478Z,1.97
2023-04-25T18:32:53.350Z,6.53
2023-04-25T18:35:22.584Z,6.77
2023-04-25T18:37:51.217Z,5.50
2023-04-25T18:40:19.914Z,2.40
2023-04-25T18:42:48.870Z,2.83
2023-04-25T18:45:19.390Z,5.07
2023-04-25T18:47:47.966Z,5.87
2023-04-25T18:50:20.310Z,7.97
2023-04-25T18:52:48.902Z,5.33
2023-04-25T18:55:17.555Z,5.00
2023-04-25T18:57:46.258Z,3.13
2023-04-25T19:00:17.347Z,7.47
2023-04-25T19:02:47.670Z,4.37
2023-04-25T19:05:16.457Z,3.33
2023-04-25T19:07:45.221Z,3.73
2023-04-25T19:10:13.742Z,5.97
2023-04-25T19:12:42.280Z,7.03
2023-04-25T19:15:11.877Z,5.50
2023-04-25T19:17:42.117Z,3.53
2023-04-25T19:20:13.373Z,9.60
2023-04-25T19:22:42.029Z,11.57
2023-04-25T19:25:11.444Z,9.23
2023-04-25T19:27:40.309Z,3.97
2023-04-25T19:30:10.644Z,6.53
2023-04-25T19:32:39.773Z,9.27
2023-04-25T19:35:11.581Z,8.37
2023-04-25T19:37:46.928Z,5.13
2023-04-25T19:40:16.771Z,5.83
2023-04-25T19:42:45.785Z,5.30
2023-04-25T19:45:14.317Z,12.30
2023-04-25T19:47:43.803Z,9.60
2023-04-25T19:50:12.913Z,4.53
2023-04-25T19:52:42.857Z,9.67
2023-04-25T19:55:11.829Z,4.70
2023-04-25T19:57:40.354Z,11.63
2023-04-25T20:00:10.920Z,6.73
2023-04-25T20:02:43.849Z,10.40
2023-04-25T20:05:14.395Z,7.43
2023-04-25T20:07:44.609Z,17.03
2023-04-25T20:10:14.151Z,17.87
2023-04-25T20:12:42.898Z,27.37
2023-04-25T20:15:12.573Z,31.37
2023-04-25T20:17:41.978Z,19.03
2023-04-25T20:20:12.106Z,21.53
2023-04-25T20:22:41.062Z,16.80
2023-04-25T20:25:12.200Z,10.50
2023-04-25T20:27:40.877Z,14.00
2023-04-25T20:30:11.932Z,11.90
2023-04-25T20:32:41.232Z,11.00
2023-04-25T20:35:10.669Z,13.63
2023-04-25T20:37:39.357Z,9.83
2023-04-25T20:40:11.122Z,6.07
2023-04-25T20:42:39.672Z,9.63
2023-04-25T20:45:13.003Z,10.83
2023-04-25T20:47:42.785Z,10.97
2023-04-25T20:50:12.302Z,6.33
2023-04-25T20:52:41.705Z,10.80
2023-04-25T20:55:11.997Z,13.47
2023-04-25T20:57:40.880Z,9.47
2023-04-25T21:00:16.703Z,9.07
2023-04-25T21:02:46.001Z,7.20
2023-04-25T21:05:14.658Z,8.30
2023-04-25T21:07:43.290Z,9.03
2023-04-25T21:10:14.444Z,9.93
2023-04-25T21:12:44.114Z,8.27
2023-04-25T21:15:14.532Z,12.47
2023-04-25T21:17:43.255Z,8.47
2023-04-25T21:20:12.328Z,8.70
2023-04-25T21:22:47.791Z,5.77
2023-04-25T21:25:20.957Z,7.93
2023-04-25T21:27:50.538Z,8.63
2023-04-25T21:30:22.342Z,9.73
2023-04-25T21:32:52.786Z,8.27
2023-04-25T21:35:23.010Z,10.85
2023-04-25T21:37:52.354Z,13.67
2023-04-25T21:40:22.311Z,8.23
2023-04-25T21:42:51.855Z,15.23
2023-04-25T21:45:21.277Z,7.37
2023-04-25T21:47:50.721Z,8.97
2023-04-25T21:50:19.940Z,9.97
2023-04-25T21:52:49.204Z,6.77
2023-04-25T21:55:19.670Z,8.77
2023-04-25T21:57:49.585Z,6.60
2023-04-25T22:00:24.335Z,5.27
2023-04-25T22:02:53.710Z,6.03
2023-04-25T22:05:23.290Z,11.33
2023-04-25T22:07:53.113Z,9.63
2023-04-25T22:10:21.953Z,5.97
2023-04-25T22:12:52.001Z,4.83
2023-04-25T22:15:22.424Z,3.93
2023-04-25T22:17:52.176Z,3.27
2023-04-25T22:20:24.283Z,7.53
2023-04-25T22:22:53.126Z,8.37
2023-04-25T22:25:22.210Z,5.60
2023-04-25T22:27:52.424Z,7.17
2023-04-25T22:30:21.638Z,10.73
2023-04-25T22:32:50.220Z,11.53
2023-04-25T22:35:19.291Z,6.13
2023-04-25T22:37:47.888Z,7.43
2023-04-25T22:40:16.516Z,6.83
2023-04-25T22:42:45.209Z,9.20
2023-04-25T22:45:16.145Z,5.93
2023-04-25T22:47:44.839Z,4.73
2023-04-25T22:50:16.584Z,6.23
2023-04-25T22:52:45.497Z,5.10
2023-04-25T22:55:14.054Z,9.03
2023-04-25T22:57:43.004Z,4.53
2023-04-25T23:00:16.257Z,9.00
2023-04-25T23:02:47.364Z,6.70
2023-04-25T23:05:16.568Z,7.17
2023-04-25T23:07:45.831Z,8.47
2023-04-25T23:10:14.617Z,3.30
2023-04-25T23:12:43.948Z,5.07
2023-04-25T23:15:13.437Z,9.47
2023-04-25T23:17:42.345Z,4.20
2023-04-25T23:20:13.349Z,9.03
2023-04-25T23:22:42.155Z,5.97
2023-04-25T23:25:11.817Z,6.63
2023-04-25T23:27:40.354Z,5.80
2023-04-25T23:30:10.348Z,10.60
2023-04-25T23:32:39.368Z,10.80
2023-04-25T23:35:08.732Z,7.47
2023-04-25T23:37:39.416Z,11.00
2023-04-25T23:40:09.857Z,15.90
2023-04-25T23:42:39.023Z,9.17
2023-04-25T23:45:09.222Z,7.60
2023-04-25T23:47:38.045Z,6.90
2023-04-25T23:50:07.996Z,6.47
2023-04-25T23:52:38.315Z,6.27
2023-04-25T23:55:07.759Z,6.00
2023-04-25T23:57:36.332Z,6.30
